Time;durP1;ratioP1;P1;durP2;ratioP2;P2;SDS_P1;SDS_P2;PMS_P1;PMS_P2;Temp;Humidity;BMP_temperature;BMP_pressure;BME280_temperature;BME280_humidity;BME280_pressure;Samples;Min_cycle;Max_cycle;Signal;HPM_P1;HPM_P2
2022/05/06 00:01:39;;;;;;;4.72;3.13;;;10.20;99.90;;;;;;5034608;28;20041;-62
2022/05/06 00:04:06;;;;;;;5.30;3.33;;;10.10;99.90;;;;;;5017121;28;20491;-62
2022/05/06 00:06:32;;;;;;;6.38;3.30;;;10.00;99.90;;;;;;5034204;28;20029;-63
2022/05/06 00:08:58;;;;;;;6.88;3.65;;;9.90;99.90;;;;;;5016548;28;20025;-62
2022/05/06 00:11:25;;;;;;;6.15;3.38;;;9.80;99.90;;;;;;5017044;28;20029;-62
2022/05/06 00:13:52;;;;;;;6.20;3.20;;;9.80;99.90;;;;;;5016645;28;20395;-62
2022/05/06 00:16:22;;;;;;;4.78;3.17;;;9.70;99.90;;;;;;5034368;28;20025;-62
2022/05/06 00:18:48;;;;;;;6.72;2.95;;;9.70;99.90;;;;;;5016492;28;20018;-62
2022/05/06 00:21:14;;;;;;;4.25;2.75;;;9.70;99.90;;;;;;5034062;28;20028;-62
2022/05/06 00:23:40;;;;;;;5.38;3.25;;;9.70;99.90;;;;;;5034664;28;20029;-62
2022/05/06 00:26:05;;;;;;;8.68;3.58;;;9.70;99.90;;;;;;5016786;28;20026;-63
2022/05/06 00:28:31;;;;;;;8.15;3.33;;;9.70;99.90;;;;;;5034397;28;20036;-62
2022/05/06 00:30:58;;;;;;;6.57;3.67;;;9.70;99.90;;;;;;5034070;28;20067;-63
2022/05/06 00:33:24;;;;;;;8.18;3.55;;;9.70;99.90;;;;;;5016854;28;20029;-62
2022/05/06 00:35:57;;;;;;;6.78;3.42;;;9.70;99.90;;;;;;5016502;28;20114;-62
2022/05/06 00:38:23;;;;;;;6.72;3.53;;;9.70;99.90;;;;;;5033800;28;20024;-62
2022/05/06 00:40:48;;;;;;;6.95;3.92;;;9.80;99.90;;;;;;5033300;28;20029;-63
2022/05/06 00:43:14;;;;;;;6.13;3.60;;;9.80;99.90;;;;;;5015613;28;20018;-62
2022/05/06 00:45:46;;;;;;;6.60;4.00;;;9.80;99.90;;;;;;5015555;28;20084;-62
2022/05/06 00:48:13;;;;;;;7.38;3.72;;;9.80;99.90;;;;;;5033644;28;20033;-62
2022/05/06 00:50:39;;;;;;;6.88;3.95;;;9.80;99.90;;;;;;5033369;28;20178;-62
2022/05/06 00:53:07;;;;;;;7.63;3.97;;;9.70;99.90;;;;;;5015767;28;20116;-62
2022/05/06 00:55:35;;;;;;;5.50;3.67;;;9.70;99.90;;;;;;5033266;28;20029;-62
2022/05/06 00:58:02;;;;;;;5.93;3.45;;;9.70;99.90;;;;;;5033611;28;20021;-62
2022/05/06 01:00:28;;;;;;;7.20;3.63;;;9.70;99.90;;;;;;5017936;28;20025;-62
2022/05/06 01:02:54;;;;;;;5.55;3.47;;;9.60;99.90;;;;;;5037784;28;20053;-62
2022/05/06 01:05:20;;;;;;;12.10;3.38;;;9.50;99.90;;;;;;5020498;28;20087;-62
2022/05/06 01:07:47;;;;;;;5.93;3.70;;;9.50;99.90;;;;;;5019659;28;20026;-62
2022/05/06 01:10:13;;;;;;;7.07;3.33;;;9.40;99.90;;;;;;5019660;28;20383;-62
2022/05/06 01:12:39;;;;;;;6.97;3.08;;;9.40;99.90;;;;;;5037524;28;20021;-61
2022/05/06 01:15:24;;;;;;;5.30;3.42;;;9.30;99.90;;;;;;5020224;28;20037;-60
2022/05/06 01:17:52;;;;;;;7.05;2.85;;;9.30;99.90;;;;;;5019677;28;20113;-62
2022/05/06 01:20:20;;;;;;;4.40;3.15;;;9.30;99.90;;;;;;5036877;28;20049;-61
2022/05/06 01:22:47;;;;;;;5.40;3.30;;;9.20;99.90;;;;;;5019146;28;20087;-62
2022/05/06 01:25:13;;;;;;;6.13;3.83;;;9.20;99.90;;;;;;5019160;28;20392;-62
2022/05/06 01:27:46;;;;;;;6.05;3.58;;;9.20;99.90;;;;;;5037078;28;20026;-60
2022/05/06 01:30:37;;;;;;;6.82;3.42;;;9.10;99.90;;;;;;5036917;28;20056;-62
2022/05/06 01:33:08;;;;;;;12.77;2.90;;;9.00;99.90;;;;;;5037355;28;20079;-62
2022/05/06 01:35:41;;;;;;;5.78;3.15;;;9.00;99.90;;;;;;5019016;28;20025;-62
2022/05/06 01:38:08;;;;;;;4.05;2.55;;;9.00;99.90;;;;;;5019739;28;20024;-62
2022/05/06 01:40:46;;;;;;;5.32;3.13;;;9.00;99.90;;;;;;5019039;28;20025;-62
2022/05/06 01:43:14;;;;;;;4.30;3.35;;;9.00;99.90;;;;;;5019328;28;20018;-62
2022/05/06 01:45:40;;;;;;;8.93;3.28;;;9.00;99.90;;;;;;5018950;28;20098;-61
2022/05/06 01:48:07;;;;;;;6.30;3.58;;;9.00;99.90;;;;;;5019050;28;20060;-61
2022/05/06 01:50:36;;;;;;;8.38;3.45;;;8.90;99.90;;;;;;5019045;28;20087;-62
2022/05/06 01:53:02;;;;;;;7.05;3.42;;;8.90;99.90;;;;;;5036907;28;20108;-62
2022/05/06 01:55:28;;;;;;;7.45;3.50;;;8.90;99.90;;;;;;5018872;28;20107;-62
2022/05/06 01:57:53;;;;;;;5.25;3.45;;;8.80;99.90;;;;;;5036549;28;20025;-62
2022/05/06 02:00:19;;;;;;;5.95;3.63;;;8.80;99.90;;;;;;5036251;28;20021;-62
2022/05/06 02:02:45;;;;;;;6.10;3.45;;;8.90;99.90;;;;;;5036981;28;20032;-62
2022/05/06 02:05:16;;;;;;;6.80;3.53;;;8.80;99.90;;;;;;5019009;28;20064;-62
2022/05/06 02:07:52;;;;;;;6.55;3.08;;;8.80;99.90;;;;;;5019235;28;20076;-61
2022/05/06 02:10:20;;;;;;;5.60;3.38;;;8.80;99.90;;;;;;5018268;28;20056;-62
2022/05/06 02:12:47;;;;;;;6.60;3.08;;;8.80;99.90;;;;;;5018694;28;20030;-62
2022/05/06 02:15:14;;;;;;;5.30;3.45;;;8.80;99.90;;;;;;5018138;28;20099;-62
2022/05/06 02:17:40;;;;;;;6.38;2.90;;;8.80;99.90;;;;;;5018476;28;20025;-62
2022/05/06 02:20:08;;;;;;;7.30;3.40;;;8.80;99.90;;;;;;5036399;28;20067;-61
2022/05/06 02:22:35;;;;;;;9.57;3.65;;;8.70;99.90;;;;;;5035865;28;20043;-62
2022/05/06 02:25:01;;;;;;;6.28;2.92;;;8.70;99.90;;;;;;5018332;28;20406;-62
2022/05/06 02:27:26;;;;;;;5.22;3.53;;;8.70;99.90;;;;;;5018542;28;20025;-62
2022/05/06 02:35:21;;;;;;;4.70;3.30;;;8.60;99.90;;;;;;5036090;28;20119;-61
2022/05/06 02:37:46;;;;;;;5.88;3.03;;;8.60;99.90;;;;;;5035749;28;20045;-59
2022/05/06 02:40:13;;;;;;;7.50;3.40;;;8.60;99.90;;;;;;5035466;28;20060;-62
2022/05/06 02:42:39;;;;;;;8.93;3.03;;;8.50;99.90;;;;;;5017523;28;20022;-62
2022/05/06 02:45:05;;;;;;;9.77;5.15;;;8.50;99.90;;;;;;5035373;28;20033;-62
2022/05/06 02:47:31;;;;;;;11.95;4.43;;;8.40;99.90;;;;;;5035486;28;20167;-62
2022/05/06 02:49:56;;;;;;;5.25;2.95;;;8.30;99.90;;;;;;5017364;28;20128;-62
2022/05/06 02:52:23;;;;;;;3.70;2.35;;;8.30;99.90;;;;;;5017821;28;20029;-62
2022/05/06 02:54:49;;;;;;;3.88;2.88;;;8.30;99.90;;;;;;5017678;28;20129;-62
2022/05/06 02:57:14;;;;;;;5.10;2.83;;;8.30;99.90;;;;;;5035727;28;20057;-62
2022/05/06 02:59:40;;;;;;;5.82;3.10;;;8.30;99.90;;;;;;5035743;28;20036;-62
2022/05/06 03:02:06;;;;;;;7.05;2.60;;;8.30;99.90;;;;;;5017749;28;20013;-61
2022/05/06 03:04:32;;;;;;;7.50;3.45;;;8.20;99.90;;;;;;5017719;28;20022;-62
2022/05/06 03:06:58;;;;;;;10.13;3.08;;;8.20;99.90;;;;;;5036031;28;20032;-63
2022/05/06 03:09:24;;;;;;;5.35;3.15;;;8.20;99.90;;;;;;5018967;28;20044;-62
2022/05/06 03:11:50;;;;;;;4.63;2.83;;;8.10;99.90;;;;;;5017934;28;20048;-64
2022/05/06 03:14:15;;;;;;;6.35;3.10;;;8.00;99.90;;;;;;5035500;28;20022;-62
2022/05/06 03:16:41;;;;;;;7.20;2.78;;;8.00;99.90;;;;;;5017354;28;20030;-62
2022/05/06 03:19:07;;;;;;;4.78;2.72;;;8.00;99.90;;;;;;5018675;28;20463;-62
2022/05/06 03:21:32;;;;;;;4.70;3.08;;;8.00;99.90;;;;;;5017702;28;20108;-62
2022/05/06 03:23:59;;;;;;;7.75;3.10;;;8.00;99.90;;;;;;5034752;28;20024;-62
2022/05/06 03:26:25;;;;;;;5.70;2.83;;;8.00;99.90;;;;;;5017161;28;20510;-62
2022/05/06 03:28:52;;;;;;;4.18;2.60;;;8.00;99.90;;;;;;5017189;28;20029;-62
2022/05/06 03:31:18;;;;;;;4.05;2.92;;;8.00;99.90;;;;;;5018225;28;20075;-63
2022/05/06 03:33:45;;;;;;;5.65;3.08;;;7.90;99.90;;;;;;5018058;28;20083;-62
2022/05/06 03:36:12;;;;;;;9.40;3.40;;;7.90;99.90;;;;;;5034784;28;20021;-62
2022/05/06 03:38:37;;;;;;;4.93;3.50;;;7.90;99.90;;;;;;5017390;28;20032;-61
2022/05/06 03:41:03;;;;;;;6.78;3.00;;;7.90;99.90;;;;;;5017112;28;20466;-62
2022/05/06 03:43:29;;;;;;;4.57;2.70;;;7.90;99.90;;;;;;5034937;28;20018;-62
2022/05/06 03:45:54;;;;;;;10.45;5.35;;;7.80;99.90;;;;;;5017663;28;20029;-60
2022/05/06 03:48:26;;;;;;;6.20;3.05;;;7.90;99.90;;;;;;5034686;28;20029;-61
2022/05/06 03:53:36;;;;;;;8.40;3.25;;;7.90;99.90;;;;;;5035014;28;20079;-62
2022/05/06 03:56:05;;;;;;;5.40;3.45;;;7.90;99.90;;;;;;5034555;28;20096;-61
2022/05/06 03:58:32;;;;;;;7.45;3.20;;;7.80;99.90;;;;;;5034527;28;20029;-62
2022/05/06 04:00:58;;;;;;;6.35;3.42;;;7.80;99.90;;;;;;5016946;28;20025;-62
2022/05/06 04:03:24;;;;;;;6.45;2.97;;;7.80;99.90;;;;;;5017470;28;20044;-62
2022/05/06 04:05:49;;;;;;;9.00;4.22;;;7.80;99.90;;;;;;5016589;28;20025;-62
2022/05/06 04:08:15;;;;;;;7.38;3.58;;;7.90;99.90;;;;;;5016860;28;20025;-62
2022/05/06 04:10:41;;;;;;;7.00;3.28;;;7.80;99.90;;;;;;5034562;28;20065;-63
2022/05/06 04:13:07;;;;;;;6.10;2.92;;;7.90;99.90;;;;;;5034468;28;20029;-61
2022/05/06 04:15:33;;;;;;;7.07;3.20;;;7.90;99.90;;;;;;5016519;28;20026;-62
2022/05/06 04:18:00;;;;;;;8.23;3.17;;;8.10;99.90;;;;;;5034421;28;20028;-62
2022/05/06 04:23:29;;;;;;;6.50;2.67;;;8.40;99.90;;;;;;5018499;28;20029;-62
2022/05/06 04:26:03;;;;;;;5.35;3.40;;;8.60;99.90;;;;;;5017172;28;20030;-62
2022/05/06 04:28:30;;;;;;;3.53;2.92;;;8.80;99.90;;;;;;5016423;28;20120;-62
2022/05/06 04:30:56;;;;;;;3.60;2.67;;;9.00;99.90;;;;;;5016226;28;20034;-61
2022/05/06 04:33:24;;;;;;;9.02;4.03;;;9.30;99.90;;;;;;5033675;28;20030;-62
2022/05/06 04:35:51;;;;;;;9.55;2.42;;;9.70;99.90;;;;;;5033535;28;20025;-62
2022/05/06 04:38:17;;;;;;;4.47;3.00;;;10.00;99.90;;;;;;5033678;28;20025;-62
2022/05/06 04:40:43;;;;;;;4.88;3.13;;;10.20;99.90;;;;;;5033677;28;20067;-61
2022/05/06 04:43:10;;;;;;;5.35;3.58;;;10.30;99.90;;;;;;5033931;28;20026;-61
2022/05/06 04:45:40;;;;;;;6.70;2.85;;;10.30;99.90;;;;;;5015922;28;20079;-62
2022/05/06 04:48:06;;;;;;;5.47;3.08;;;10.70;99.90;;;;;;5016093;28;20036;-60
2022/05/06 04:50:36;;;;;;;3.63;2.80;;;11.10;99.90;;;;;;5033740;28;20038;-61
2022/05/06 04:53:02;;;;;;;9.30;2.63;;;11.50;99.90;;;;;;5015891;28;20025;-62
2022/05/06 04:55:28;;;;;;;6.90;3.20;;;12.00;99.90;;;;;;5015622;28;20116;-61
2022/05/06 04:57:54;;;;;;;23.52;9.88;;;12.30;99.90;;;;;;5016212;28;20060;-62
2022/05/06 05:00:21;;;;;;;9.57;3.45;;;12.70;99.90;;;;;;5016512;28;20025;-59
2022/05/06 05:02:48;;;;;;;3.10;2.45;;;13.30;99.90;;;;;;5016109;28;20025;-61
2022/05/06 05:05:13;;;;;;;11.90;4.07;;;13.60;99.90;;;;;;5033413;28;20025;-62
2022/05/06 05:07:40;;;;;;;18.30;7.15;;;14.00;99.90;;;;;;5015885;28;20025;-62
2022/05/06 05:10:07;;;;;;;24.75;8.30;;;14.20;99.90;;;;;;5015451;28;20056;-62
2022/05/06 05:12:32;;;;;;;27.25;9.65;;;14.70;99.90;;;;;;5033824;28;20033;-62
2022/05/06 05:14:58;;;;;;;22.85;8.48;;;15.10;99.90;;;;;;5015507;28;20391;-61
2022/05/06 05:17:24;;;;;;;21.75;9.50;;;15.40;99.90;;;;;;5033160;28;20080;-62
2022/05/06 05:19:49;;;;;;;22.85;9.35;;;15.70;99.90;;;;;;5033209;28;20029;-62
2022/05/06 05:22:15;;;;;;;15.70;6.65;;;16.10;99.90;;;;;;5015524;28;20097;-62
2022/05/06 05:24:41;;;;;;;15.88;6.30;;;16.60;99.90;;;;;;5016208;28;20028;-62
2022/05/06 05:27:06;;;;;;;11.05;5.45;;;16.90;99.90;;;;;;5033135;28;20021;-62
2022/05/06 05:29:32;;;;;;;10.07;4.60;;;17.10;99.90;;;;;;5033415;28;20032;-63
2022/05/06 05:31:58;;;;;;;8.18;4.13;;;17.40;99.90;;;;;;5033405;28;20013;-63
2022/05/06 05:34:23;;;;;;;6.45;3.78;;;17.70;99.90;;;;;;5015597;28;20049;-62
2022/05/06 05:36:49;;;;;;;6.13;3.45;;;17.90;99.90;;;;;;5016121;28;20032;-62
2022/05/06 05:39:15;;;;;;;7.93;3.50;;;17.90;99.90;;;;;;5074141;22;20036;-64
2022/05/06 05:41:41;;;;;;;6.32;4.22;;;18.40;99.90;;;;;;5072653;28;20107;-64
2022/05/06 05:49:35;;;;;;;10.93;4.28;;;19.40;99.90;;;;;;5076235;28;20043;-64
2022/05/06 05:52:01;;;;;;;5.65;3.78;;;20.00;99.90;;;;;;5076442;28;20017;-64
2022/05/06 05:54:26;;;;;;;10.50;3.53;;;19.90;99.90;;;;;;5058471;28;20043;-64
2022/05/06 05:56:54;;;;;;;5.75;3.65;;;20.20;99.90;;;;;;5076222;28;20099;-64
2022/05/06 05:59:19;;;;;;;5.38;3.17;;;20.20;99.90;;;;;;5076178;28;20020;-64
2022/05/06 06:01:45;;;;;;;9.30;4.07;;;20.90;99.90;;;;;;5059466;28;20032;-64
2022/05/06 06:04:11;;;;;;;7.07;3.80;;;21.20;99.90;;;;;;5058593;28;20016;-64
2022/05/06 06:06:37;;;;;;;8.48;3.40;;;21.20;99.90;;;;;;5058481;28;20478;-64
2022/05/06 06:09:22;;;;;;;6.70;2.97;;;21.80;99.90;;;;;;5058211;28;20060;-64
2022/05/06 06:11:51;;;;;;;9.68;3.95;;;21.90;99.90;;;;;;5076195;28;20027;-64
2022/05/06 06:14:17;;;;;;;6.18;3.40;;;22.30;99.90;;;;;;5059129;28;20111;-64
2022/05/06 06:16:43;;;;;;;6.32;3.05;;;23.00;99.90;;;;;;5058518;28;20031;-64
2022/05/06 06:19:09;;;;;;;4.72;2.70;;;23.50;99.90;;;;;;5075839;28;20468;-64
2022/05/06 06:21:35;;;;;;;6.97;3.28;;;23.80;99.90;;;;;;5058879;28;20017;-64
2022/05/06 06:24:00;;;;;;;4.70;3.60;;;24.10;95.40;;;;;;5075808;28;20099;-64
2022/05/06 06:26:26;;;;;;;4.38;3.05;;;23.80;95.60;;;;;;5058259;28;20111;-64
2022/05/06 06:28:52;;;;;;;6.75;3.78;;;24.40;97.90;;;;;;5058061;28;20484;-64
2022/05/06 06:31:17;;;;;;;5.95;3.92;;;25.00;93.10;;;;;;5058466;28;20024;-65
2022/05/06 06:33:43;;;;;;;6.53;3.20;;;25.20;91.90;;;;;;5057846;28;20025;-64
2022/05/06 06:36:09;;;;;;;5.38;3.80;;;25.80;91.00;;;;;;5075741;28;20031;-64
2022/05/06 06:38:35;;;;;;;6.00;3.20;;;25.70;90.00;;;;;;5057515;28;20025;-64
2022/05/06 06:41:01;;;;;;;6.28;2.85;;;26.40;90.70;;;;;;5058649;28;20405;-64
2022/05/06 06:43:27;;;;;;;4.45;3.17;;;26.60;88.80;;;;;;5075615;28;20032;-64
2022/05/06 06:45:53;;;;;;;7.53;3.17;;;26.90;88.60;;;;;;5057795;28;20029;-64
2022/05/06 06:48:18;;;;;;;12.68;4.50;;;26.90;84.60;;;;;;5057642;28;20020;-64
2022/05/06 06:50:44;;;;;;;5.32;3.15;;;27.20;85.90;;;;;;5057590;28;20390;-63
2022/05/06 06:53:10;;;;;;;5.85;3.45;;;28.00;81.10;;;;;;5057349;28;20036;-64
2022/05/06 06:55:36;;;;;;;4.80;3.47;;;28.80;80.70;;;;;;5075202;28;20020;-64
2022/05/06 06:58:02;;;;;;;4.93;3.22;;;28.80;77.70;;;;;;5074241;28;20032;-65
2022/05/06 07:00:27;;;;;;;6.05;3.33;;;29.30;74.80;;;;;;5057696;28;20070;-64
2022/05/06 07:02:55;;;;;;;10.63;4.75;;;28.60;74.60;;;;;;5058257;28;20024;-64
2022/05/06 07:05:23;;;;;;;4.50;3.60;;;29.20;76.40;;;;;;5057215;28;20029;-64
2022/05/06 07:13:17;;;;;;;4.65;2.80;;;30.80;70.40;;;;;;5075629;28;20146;-65
2022/05/06 07:15:43;;;;;;;5.63;3.00;;;30.30;66.70;;;;;;5074903;28;20108;-64
2022/05/06 07:18:09;;;;;;;3.63;3.03;;;30.50;69.70;;;;;;5075843;28;20059;-64
2022/05/06 07:20:35;;;;;;;6.03;2.50;;;31.60;65.00;;;;;;5057404;28;20109;-65
2022/05/06 07:23:00;;;;;;;3.13;2.40;;;31.50;61.10;;;;;;5075109;28;20029;-64
2022/05/06 07:25:26;;;;;;;3.47;2.10;;;31.30;62.60;;;;;;5057027;28;20025;-64
2022/05/06 07:27:51;;;;;;;4.38;2.20;;;31.30;63.90;;;;;;5074874;28;20112;-64
2022/05/06 07:30:17;;;;;;;3.33;2.00;;;32.10;57.60;;;;;;5074930;28;20024;-64
2022/05/06 07:32:43;;;;;;;3.70;2.10;;;32.00;63.20;;;;;;5057300;28;20052;-64
2022/05/06 07:35:09;;;;;;;5.97;2.17;;;31.40;57.50;;;;;;5074815;28;20410;-64
2022/05/06 07:37:35;;;;;;;2.75;1.67;;;30.60;63.10;;;;;;5056720;28;20086;-64
2022/05/06 07:40:02;;;;;;;3.80;1.92;;;30.30;57.00;;;;;;5056808;28;20039;-64
2022/05/06 07:42:32;;;;;;;3.70;1.92;;;30.80;59.10;;;;;;5074819;28;20028;-64
2022/05/06 07:44:58;;;;;;;3.65;1.80;;;31.90;59.50;;;;;;5056545;28;20029;-64
2022/05/06 07:47:24;;;;;;;8.45;2.08;;;31.70;58.70;;;;;;5057042;28;20033;-64
2022/05/06 07:49:49;;;;;;;7.60;1.90;;;32.20;56.90;;;;;;5056762;28;20025;-64
2022/05/06 07:52:15;;;;;;;2.67;1.40;;;32.90;54.50;;;;;;5056834;28;20024;-64
2022/05/06 07:54:40;;;;;;;8.13;2.00;;;31.70;54.70;;;;;;5056414;28;20493;-64
2022/05/06 07:57:06;;;;;;;4.57;1.85;;;31.10;56.80;;;;;;5056863;28;20378;-64
2022/05/06 07:59:32;;;;;;;3.88;1.92;;;31.40;56.00;;;;;;5056179;28;20065;-64
2022/05/06 08:04:42;;;;;;;3.22;1.95;;;31.00;54.00;;;;;;5074173;28;20108;-63
2022/05/06 08:07:08;;;;;;;5.45;1.92;;;31.30;55.70;;;;;;5055940;28;20027;-63
2022/05/06 08:09:34;;;;;;;5.43;2.08;;;31.80;53.40;;;;;;5073623;28;20025;-62
2022/05/06 08:12:00;;;;;;;10.57;2.03;;;31.80;54.50;;;;;;5056748;28;20064;-64
2022/05/06 08:14:26;;;;;;;4.03;1.70;;;32.50;57.00;;;;;;5056576;28;20055;-66
2022/05/06 08:16:53;;;;;;;4.57;1.90;;;33.90;53.90;;;;;;5055699;28;20074;-66
2022/05/06 08:19:19;;;;;;;5.22;2.67;;;34.80;52.10;;;;;;5073739;28;20020;-65
2022/05/06 08:21:45;;;;;;;2.38;1.70;;;33.80;52.20;;;;;;5055667;28;20021;-65
2022/05/06 08:24:12;;;;;;;7.40;2.22;;;34.00;52.30;;;;;;5073489;28;20043;-64
2022/05/06 08:26:37;;;;;;;4.88;1.80;;;34.10;53.80;;;;;;5055981;28;20033;-63
2022/05/06 08:29:05;;;;;;;3.63;2.00;;;35.10;53.30;;;;;;5056245;28;20028;-61
2022/05/06 08:31:37;;;;;;;4.18;1.60;;;35.50;49.00;;;;;;5073609;28;20040;-62
2022/05/06 08:34:04;;;;;;;3.47;1.63;;;35.00;54.00;;;;;;5073483;28;20024;-66
2022/05/06 08:36:30;;;;;;;5.93;1.42;;;34.90;50.60;;;;;;5055742;28;20040;-66
2022/05/06 08:38:56;;;;;;;3.08;1.65;;;35.60;51.20;;;;;;5055500;28;20032;-66
2022/05/06 08:41:23;;;;;;;3.75;1.40;;;35.90;48.80;;;;;;5055843;28;20051;-66
2022/05/06 08:43:49;;;;;;;2.47;1.73;;;35.80;48.50;;;;;;5055343;28;20025;-66
2022/05/06 08:51:48;;;;;;;4.47;1.73;;;34.40;50.70;;;;;;5073981;28;20042;-66
2022/05/06 08:54:16;;;;;;;2.25;1.50;;;33.90;48.00;;;;;;5073278;28;20029;-66
2022/05/06 08:56:41;;;;;;;2.60;1.55;;;34.60;51.40;;;;;;5055742;28;20021;-66
2022/05/06 08:59:08;;;;;;;3.58;1.48;;;35.40;50.50;;;;;;5055175;28;20131;-63
2022/05/06 09:01:34;;;;;;;3.67;1.98;;;36.40;46.40;;;;;;5055286;28;20020;-66
2022/05/06 09:03:59;;;;;;;1.60;1.27;;;35.10;46.40;;;;;;5073255;28;20103;-66
2022/05/06 09:06:30;;;;;;;2.92;1.60;;;33.40;46.80;;;;;;5073788;28;20024;-66
2022/05/06 09:08:58;;;;;;;6.03;1.98;;;32.20;47.50;;;;;;5055777;28;20052;-66
2022/05/06 09:14:15;;;;;;;5.63;1.75;;;31.70;50.00;;;;;;5073193;28;20035;-66
2022/05/06 09:16:42;;;;;;;3.38;1.35;;;32.30;48.80;;;;;;5055037;28;20024;-66
2022/05/06 09:19:14;;;;;;;7.07;1.45;;;32.40;46.40;;;;;;5073085;28;20025;-66
2022/05/06 09:21:41;;;;;;;3.28;1.75;;;31.90;45.90;;;;;;5075720;28;20046;-65
2022/05/06 09:24:17;;;;;;;1.52;1.40;;;31.60;48.40;;;;;;5076987;28;20017;-65
2022/05/06 09:27:03;;;;;;;3.17;1.60;;;30.90;47.00;;;;;;5059033;28;20031;-65
2022/05/06 09:29:36;;;;;;;2.00;1.60;;;29.50;49.40;;;;;;5059605;28;20048;-65
2022/05/06 09:32:21;;;;;;;4.50;1.67;;;30.10;52.60;;;;;;5077029;28;20044;-66
2022/05/06 09:34:57;;;;;;;1.70;1.30;;;32.40;48.40;;;;;;5059547;28;20063;-66
2022/05/06 09:37:36;;;;;;;7.38;1.85;;;34.30;48.30;;;;;;5059428;28;20485;-66
2022/05/06 09:40:12;;;;;;;3.67;1.40;;;34.60;45.90;;;;;;5076992;28;20070;-66
2022/05/06 09:42:45;;;;;;;3.83;1.70;;;33.80;45.50;;;;;;5059750;28;20025;-65
2022/05/06 09:45:27;;;;;;;3.38;1.20;;;30.70;48.00;;;;;;5076801;28;20055;-65
2022/05/06 09:47:58;;;;;;;2.85;1.40;;;30.30;48.70;;;;;;5076544;28;20048;-65
2022/05/06 09:50:32;;;;;;;5.05;1.90;;;29.90;47.50;;;;;;5076341;28;20099;-65
2022/05/06 09:53:02;;;;;;;5.85;1.42;;;29.50;50.50;;;;;;5058889;28;20047;-66
2022/05/06 09:55:29;;;;;;;3.70;1.70;;;31.10;47.90;;;;;;5058696;28;20390;-66
2022/05/06 09:57:59;;;;;;;2.75;1.33;;;31.40;46.60;;;;;;5058434;28;20053;-66
2022/05/06 10:00:27;;;;;;;1.83;1.38;;;31.60;48.30;;;;;;5058686;28;20116;-66
2022/05/06 10:02:52;;;;;;;4.18;1.50;;;33.30;48.20;;;;;;5076284;28;20119;-66
2022/05/06 10:05:18;;;;;;;2.40;1.45;;;34.50;47.30;;;;;;5058320;28;20554;-66
2022/05/06 10:07:44;;;;;;;4.75;1.40;;;33.80;44.60;;;;;;5076156;28;20031;-66
2022/05/06 10:10:21;;;;;;;4.53;1.58;;;33.20;47.10;;;;;;5058150;28;20028;-66
2022/05/06 10:12:53;;;;;;;5.00;1.00;;;32.20;50.20;;;;;;5076130;28;20024;-66
2022/05/06 10:15:21;;;;;;;5.00;1.13;;;32.50;45.40;;;;;;5076183;28;20024;-66
2022/05/06 10:17:48;;;;;;;5.57;1.20;;;32.10;47.80;;;;;;5075953;28;20029;-66
2022/05/06 10:20:35;;;;;;;3.38;1.20;;;31.80;45.70;;;;;;5076120;28;20046;-65
2022/05/06 10:23:02;;;;;;;2.50;1.40;;;30.50;46.70;;;;;;5075864;28;20024;-66
2022/05/06 10:25:43;;;;;;;3.75;1.50;;;30.50;49.10;;;;;;5076079;28;20078;-66
2022/05/06 10:34:17;;;;;;;3.97;1.83;;;26.90;54.40;;;;;;5076127;28;20058;-66
2022/05/06 10:36:50;;;;;;;4.05;1.48;;;27.70;54.40;;;;;;5057635;28;20096;-66
2022/05/06 10:39:34;;;;;;;3.80;1.48;;;27.60;52.00;;;;;;5057197;28;20036;-66
2022/05/06 10:42:13;;;;;;;3.20;1.15;;;27.30;51.60;;;;;;5058613;28;20055;-65
2022/05/06 10:44:41;;;;;;;6.07;1.38;;;25.70;52.40;;;;;;5058343;28;20032;-65
2022/05/06 10:47:12;;;;;;;4.32;1.20;;;24.60;54.70;;;;;;5057780;28;20048;-65
2022/05/06 10:49:38;;;;;;;3.03;1.20;;;24.20;55.00;;;;;;5058236;28;20028;-65
2022/05/06 10:52:16;;;;;;;3.30;1.50;;;23.90;55.80;;;;;;5075300;28;20016;-65
2022/05/06 10:54:48;;;;;;;2.53;0.98;;;23.30;55.40;;;;;;5057330;28;20044;-65
2022/05/06 10:57:15;;;;;;;1.95;1.13;;;23.60;56.50;;;;;;5057549;28;20035;-65
2022/05/06 10:59:53;;;;;;;4.68;1.40;;;23.10;57.50;;;;;;5075038;28;20020;-65
2022/05/06 11:02:28;;;;;;;3.53;1.20;;;22.60;57.00;;;;;;5075213;28;20024;-64
2022/05/06 11:05:04;;;;;;;6.07;1.20;;;22.80;59.60;;;;;;5075122;28;20020;-65
2022/05/06 11:07:31;;;;;;;2.25;1.55;;;22.80;57.80;;;;;;5057536;28;20017;-65
2022/05/06 11:09:58;;;;;;;8.55;1.73;;;22.40;58.30;;;;;;5074797;28;20016;-65
2022/05/06 11:12:40;;;;;;;5.13;1.13;;;22.20;60.00;;;;;;5074895;28;20390;-65
2022/05/06 11:15:10;;;;;;;5.07;1.15;;;22.00;58.70;;;;;;5074856;28;20055;-65
2022/05/06 11:17:37;;;;;;;2.85;1.10;;;21.70;59.80;;;;;;5057230;28;20028;-65
2022/05/06 11:20:26;;;;;;;2.35;1.20;;;21.70;58.20;;;;;;5056869;28;20028;-65
2022/05/06 11:23:08;;;;;;;7.38;2.90;;;21.60;59.80;;;;;;5075076;28;20478;-65
2022/05/06 11:25:47;;;;;;;3.30;1.38;;;21.60;61.60;;;;;;5074673;28;20024;-65
2022/05/06 11:28:20;;;;;;;4.80;1.35;;;21.50;60.80;;;;;;5056612;28;20035;-65
2022/05/06 11:30:47;;;;;;;4.53;1.10;;;21.80;62.70;;;;;;5056713;28;20028;-65
2022/05/06 11:33:27;;;;;;;2.85;1.38;;;21.80;61.40;;;;;;5074483;28;20367;-65
2022/05/06 11:36:05;;;;;;;2.58;1.00;;;21.70;61.60;;;;;;5074657;28;20024;-66
2022/05/06 11:38:36;;;;;;;2.63;1.25;;;21.80;60.90;;;;;;5056697;28;20032;-64
2022/05/06 11:41:09;;;;;;;;;;;21.80;61.30;;;;;;5074804;28;20048;-64
2022/05/06 11:43:35;;;;;;;5.88;1.05;;;21.70;59.90;;;;;;5073926;28;19904;-64
2022/05/06 11:48:47;;;;;;;4.47;0.90;;;21.80;62.00;;;;;;5074126;28;20082;-64
2022/05/06 11:51:19;;;;;;;4.50;1.05;;;22.10;60.40;;;;;;5074222;28;20386;-64
2022/05/06 11:53:46;;;;;;;2.10;0.80;;;22.40;59.50;;;;;;5074097;28;20035;-64
2022/05/06 11:56:12;;;;;;;2.17;1.10;;;22.50;60.40;;;;;;5073870;28;20063;-64
2022/05/06 11:58:38;;;;;;;3.95;0.98;;;22.50;59.10;;;;;;5073937;28;20052;-64
2022/05/06 12:01:04;;;;;;;2.05;0.90;;;22.40;60.30;;;;;;5056874;28;20021;-64
2022/05/06 12:03:30;;;;;;;2.15;0.98;;;22.10;60.10;;;;;;5073864;28;20020;-64
2022/05/06 12:06:07;;;;;;;2.20;1.10;;;21.80;60.60;;;;;;5073841;28;20052;-64
2022/05/06 12:08:35;;;;;;;2.42;1.17;;;21.60;59.40;;;;;;5055922;28;20032;-64
2022/05/06 12:11:05;;;;;;;5.63;0.95;;;21.50;61.20;;;;;;5055868;28;20059;-64
2022/05/06 12:13:38;;;;;;;2.00;0.90;;;21.80;63.20;;;;;;5074028;28;20085;-64
2022/05/06 12:16:12;;;;;;;2.08;0.90;;;22.20;61.90;;;;;;5055670;28;20486;-64
2022/05/06 12:18:50;;;;;;;2.17;0.90;;;22.50;59.80;;;;;;5055921;28;20111;-64
2022/05/06 12:21:18;;;;;;;1.88;0.75;;;22.60;61.20;;;;;;5055582;28;20112;-64
2022/05/06 12:23:50;;;;;;;3.05;0.90;;;22.70;58.40;;;;;;5055919;28;20021;-64
2022/05/06 12:26:36;;;;;;;1.35;0.80;;;22.40;59.00;;;;;;5073881;28;20044;-64
2022/05/06 12:29:52;;;;;;;0.93;0.70;;;21.70;58.80;;;;;;5073477;28;20093;-64
2022/05/06 12:32:17;;;;;;;1.92;0.82;;;21.40;60.00;;;;;;5073796;28;20078;-64
2022/05/06 12:34:43;;;;;;;0.88;0.70;;;21.30;61.00;;;;;;5055304;28;20021;-64
2022/05/06 12:37:12;;;;;;;0.60;0.60;;;21.20;61.10;;;;;;5055498;28;20032;-64
2022/05/06 12:39:40;;;;;;;2.28;0.70;;;21.10;60.70;;;;;;5055689;28;20036;-64
2022/05/06 12:42:16;;;;;;;2.67;0.80;;;20.90;61.30;;;;;;5055420;28;20023;-64
2022/05/06 12:44:43;;;;;;;2.35;0.75;;;20.80;60.50;;;;;;5073116;28;20044;-64
2022/05/06 12:50:03;;;;;;;2.83;1.00;;;20.90;61.40;;;;;;5073600;28;20035;-64
2022/05/06 12:52:28;;;;;;;3.70;0.90;;;21.10;62.10;;;;;;5055389;28;20032;-64
2022/05/06 12:54:54;;;;;;;3.97;0.90;;;21.20;60.60;;;;;;5072538;28;20020;-64
2022/05/06 12:57:20;;;;;;;1.23;0.77;;;21.30;61.10;;;;;;5072926;28;20048;-64
2022/05/06 12:59:45;;;;;;;5.00;0.82;;;21.30;61.00;;;;;;5073190;28;20020;-64
2022/05/06 13:02:11;;;;;;;2.45;0.68;;;21.10;59.50;;;;;;5073216;28;20021;-64
2022/05/06 13:04:37;;;;;;;2.83;1.02;;;21.20;60.90;;;;;;5073180;28;20016;-64
2022/05/06 13:07:03;;;;;;;2.45;0.90;;;21.00;60.50;;;;;;5055265;28;20024;-65
2022/05/06 13:09:29;;;;;;;0.73;0.55;;;21.00;62.30;;;;;;5055927;28;20024;-64
2022/05/06 13:11:55;;;;;;;3.08;0.90;;;21.30;63.20;;;;;;5055559;28;20025;-64
2022/05/06 13:14:21;;;;;;;7.07;2.17;;;21.40;61.40;;;;;;5055204;28;20032;-62
2022/05/06 13:16:48;;;;;;;1.63;0.82;;;21.50;61.10;;;;;;5073002;28;20111;-64
2022/05/06 13:19:13;;;;;;;1.50;0.90;;;21.50;60.50;;;;;;5055009;28;20074;-64
2022/05/06 13:21:39;;;;;;;1.98;0.93;;;21.50;60.80;;;;;;5055399;28;20021;-64
2022/05/06 13:24:07;;;;;;;2.42;0.90;;;21.40;60.10;;;;;;5054955;28;20035;-64
2022/05/06 13:26:36;;;;;;;1.17;0.70;;;21.40;61.00;;;;;;5055010;28;20025;-64
2022/05/06 13:29:05;;;;;;;1.13;0.85;;;21.30;58.70;;;;;;5054874;28;20117;-64
2022/05/06 13:31:32;;;;;;;2.83;0.80;;;21.30;58.90;;;;;;5054981;28;20169;-64
2022/05/06 13:33:57;;;;;;;2.72;0.70;;;21.40;59.50;;;;;;5055247;28;20063;-64
2022/05/06 13:36:23;;;;;;;1.25;0.80;;;21.60;59.80;;;;;;5054836;28;20055;-64
2022/05/06 13:38:48;;;;;;;3.17;0.75;;;21.70;60.40;;;;;;5054882;28;20028;-64
2022/05/06 13:41:14;;;;;;;1.70;0.88;;;21.50;59.90;;;;;;5054930;28;20020;-64